Brefet, Gambia

64°F / 18°C
Clear
Humidity: 83%
Dew Point: 59°F / 15°C
Wind: Variable at 2 mph / 4 km/h
Pressure: 29.83 in / 1010 hPa (Falling)
Visibility: -
Clouds:
Yesterday's Maximum: 88°F / 31°C
Yesterday's Minimum: 64°F / 18°C approx.
Yesterday's Cooling Degree Days: 11 approx.
Sunrise:7:26 AM GMT
Sunset:7:12 PM GMT
Moon Rise:8:22 PM GMT
Moon Set:8:11 AM GMT
Moon Phase Full Moon
NOAA Weather Radio
No local feed.
METAR GBYD 200300Z VRB02KT CAVOK 18/15 Q1010
As of: 3:00 AM GMT on February 20, 2019
Observed at: Banjul, Gambia

View Station's History

Local Satellite

Current Satellite Forecast
Region Default Local
No Yes

View Full Screen WunderMap

Forecast

Current Satellite Forecast
Tuesday
. High: 87° F. / 30° C.

. High: 66° F. / 18° C.

Features

Weather Apps

WunderRadio

Weather Underground Apps
Check out our wide variety of mobile and setup applications.

Weather Underground Applications

Top of Page

© Copyright 2019
The Weather Company, LLC